Franklin, NJ (07416)

5:13 AM EDT on October 02, 2014 (GMT -0400)
KNJFRANK2 | Change Station
CLOSE
Current Station
Personal Weather Station
Location: Franklin, NJ
Elevation: 571 ft
Nearby Weather Stations

Elev 571 ft 41.12 °N, 74.59 °W | Updated 13 minutes ago

Overcast
Overcast
57.5 °F
Feels Like 57.5 °F
N
0.0
Wind Variable Wind from North
Gusts 2.0 mph

Today
High -- | Low -- °F
--% Chance of Precip.
Yesterday
High -- | Low -- °F
Precip. -- in
6:56 AM 6:38 PM
First Quarter, 56% visible
Pressure 30.11 in
Visibility 10.0 miles
Clouds Few 1100 ft
Overcast 1800 ft
Dew Point 56 °F
Humidity 95%
Rainfall 0.02 in
Snow Depth Not available.
UV 0 out of 12
Pollen 2.30 out of 12
Air Quality Not available.
Flu Activity Not available.
METAR KFWN 020853Z AUTO 02003KT 10SM FEW011 OVC018 16/14 A3011 RMK AO2 SLP194 60000 T01610139 55000

More Conditions Fewer Conditions

Pressure 30.11 in
Visibility 10.0 miles
Clouds Few 1100 ft
Overcast 1800 ft
Dew Point 56 °F
Humidity 95%
Rainfall 0.02 in
Snow Depth Not available.
UV 0 out of 12
Pollen 2.30 out of 12
Air Quality Not available.
Flu Activity Not available.
METAR KFWN 020853Z AUTO 02003KT 10SM FEW011 OVC018 16/14 A3011 RMK AO2 SLP194 60000 T01610139 55000

More Conditions Fewer Conditions

10-Day Weather Forecast

Almanac

Astronomy

Oct. 02, 2014 Rise Set
Actual Time 6:56 AM EDT 6:38 PM EDT
Civil Twilight 6:28 AM EDT 7:06 PM EDT
Nautical Twilight 5:56 AM EDT 7:37 PM EDT
Astronomical Twilight 5:24 AM EDT 8:10 PM EDT
Moon 2:45 PM EDT 12:07 AM EDT
Length of Visible Light 12h 37m
Length of Day
11h 42m
Tomorrow will be 2m 42s shorter.
First Quarter, 56% of the Moon is Illuminated
Today
First Quarter
Oct 8
Full
Oct 15
Last Quarter
Oct 23
New
Oct 30
First Quarter

Today's Extremes

State Highs State Lows

Community

WunderPhotos

Upload Photos

1,758,202 photos uploaded!

WunderBlogs® & News

By Dr. Jeff Masters
Director of Meteorology, Weather Underground
By Kari Strenfel
Meteorologist, Weather Underground
By Christopher C. Burt
Weather Historian, Weather Underground
October 2, 2014
October 2, 2014
October 2, 2014

Nearby

Snow Depth

Station Depth Elevation
No new snow has been reported.

Earthquake Activity

City Distance Mag. Time & Date
No recent earthquake activity has been reported nearby.
Minimum magnitude displayed is 2.5.

Coastal Water Temperatures

Place Temperature
No Stations Reporting

Nearby Weather Stations